sensor_id;sensor_type;location;lat;lon;timestamp;pressure;altitude;pressure_sealevel;temperature;humidity
75604;BME280;64187;51.010;13.792;2023-09-19T00:01:11;99535.59;;;17.35;100.00
75604;BME280;64187;51.010;13.792;2023-09-19T00:06:11;99537.81;;;17.33;100.00
75604;BME280;64187;51.010;13.792;2023-09-19T00:11:11;99529.78;;;17.51;100.00
75604;BME280;64187;51.010;13.792;2023-09-19T00:16:11;99523.34;;;17.19;100.00
75604;BME280;64187;51.010;13.792;2023-09-19T00:21:10;99533.59;;;17.27;100.00
75604;BME280;64187;51.010;13.792;2023-09-19T00:26:09;99541.56;;;17.37;100.00
75604;BME280;64187;51.010;13.792;2023-09-19T00:31:10;99517.75;;;17.24;100.00
75604;BME280;64187;51.010;13.792;2023-09-19T00:36:09;99521.00;;;17.26;100.00
75604;BME280;64187;51.010;13.792;2023-09-19T00:41:08;99516.09;;;17.14;100.00
75604;BME280;64187;51.010;13.792;2023-09-19T00:46:07;99514.56;;;17.08;100.00
75604;BME280;64187;51.010;13.792;2023-09-19T00:51:06;99514.56;;;17.22;100.00
75604;BME280;64187;51.010;13.792;2023-09-19T00:56:06;99507.16;;;17.22;100.00
75604;BME280;64187;51.010;13.792;2023-09-19T01:01:06;99501.97;;;17.21;100.00
75604;BME280;64187;51.010;13.792;2023-09-19T01:06:07;99507.47;;;17.07;100.00
75604;BME280;64187;51.010;13.792;2023-09-19T01:11:20;99507.25;;;17.04;100.00
75604;BME280;64187;51.010;13.792;2023-09-19T01:16:28;99513.53;;;17.18;100.00
75604;BME280;64187;51.010;13.792;2023-09-19T01:32:18;99527.13;;;16.95;100.00
75604;BME280;64187;51.010;13.792;2023-09-19T01:37:22;99540.09;;;16.90;100.00
75604;BME280;64187;51.010;13.792;2023-09-19T01:42:29;99535.00;;;17.11;100.00
75604;BME280;64187;51.010;13.792;2023-09-19T01:47:37;99535.31;;;16.82;100.00
75604;BME280;64187;51.010;13.792;2023-09-19T01:52:45;99534.22;;;16.83;100.00
75604;BME280;64187;51.010;13.792;2023-09-19T01:58:10;99521.66;;;17.09;100.00
75604;BME280;64187;51.010;13.792;2023-09-19T02:03:12;99530.56;;;17.15;100.00
75604;BME280;64187;51.010;13.792;2023-09-19T02:08:16;99548.81;;;16.92;100.00
75604;BME280;64187;51.010;13.792;2023-09-19T02:13:17;99545.25;;;16.91;100.00
75604;BME280;64187;51.010;13.792;2023-09-19T02:18:16;99558.91;;;17.19;100.00
75604;BME280;64187;51.010;13.792;2023-09-19T02:23:15;99553.97;;;16.79;100.00
75604;BME280;64187;51.010;13.792;2023-09-19T02:28:15;99554.66;;;16.85;100.00
75604;BME280;64187;51.010;13.792;2023-09-19T02:33:14;99562.34;;;16.83;100.00
75604;BME280;64187;51.010;13.792;2023-09-19T02:38:13;99558.00;;;16.96;100.00
75604;BME280;64187;51.010;13.792;2023-09-19T02:43:13;99562.66;;;16.95;100.00
75604;BME280;64187;51.010;13.792;2023-09-19T02:48:12;99563.06;;;16.89;100.00
75604;BME280;64187;51.010;13.792;2023-09-19T02:53:11;99566.00;;;16.92;100.00
75604;BME280;64187;51.010;13.792;2023-09-19T02:58:13;99564.47;;;16.86;100.00
75604;BME280;64187;51.010;13.792;2023-09-19T03:03:13;99573.38;;;16.78;100.00
75604;BME280;64187;51.010;13.792;2023-09-19T03:08:14;99582.00;;;16.85;100.00
75604;BME280;64187;51.010;13.792;2023-09-19T03:13:19;99594.25;;;17.01;100.00
75604;BME280;64187;51.010;13.792;2023-09-19T03:18:19;99587.75;;;16.84;100.00
75604;BME280;64187;51.010;13.792;2023-09-19T03:23:18;99602.63;;;16.77;100.00
75604;BME280;64187;51.010;13.792;2023-09-19T03:28:20;99605.34;;;16.77;100.00
75604;BME280;64187;51.010;13.792;2023-09-19T03:33:21;99600.50;;;16.74;100.00
75604;BME280;64187;51.010;13.792;2023-09-19T03:38:20;99605.56;;;16.48;100.00
75604;BME280;64187;51.010;13.792;2023-09-19T03:43:20;99599.41;;;16.43;100.00
75604;BME280;64187;51.010;13.792;2023-09-19T03:48:20;99601.72;;;16.17;100.00
75604;BME280;64187;51.010;13.792;2023-09-19T03:53:20;99597.72;;;16.61;100.00
75604;BME280;64187;51.010;13.792;2023-09-19T03:58:20;99609.78;;;16.73;100.00
75604;BME280;64187;51.010;13.792;2023-09-19T04:03:19;99608.94;;;16.59;100.00
75604;BME280;64187;51.010;13.792;2023-09-19T04:08:20;99620.88;;;16.82;100.00
75604;BME280;64187;51.010;13.792;2023-09-19T04:13:18;99628.47;;;16.85;100.00
75604;BME280;64187;51.010;13.792;2023-09-19T04:18:18;99624.53;;;16.58;100.00
75604;BME280;64187;51.010;13.792;2023-09-19T04:23:39;99628.13;;;16.73;100.00
75604;BME280;64187;51.010;13.792;2023-09-19T04:28:39;99622.06;;;18.23;96.11
75604;BME280;64187;51.010;13.792;2023-09-19T04:33:39;99627.72;;;18.94;88.80
75604;BME280;64187;51.010;13.792;2023-09-19T04:38:38;99624.84;;;18.99;86.26
75604;BME280;64187;51.010;13.792;2023-09-19T04:43:37;99629.81;;;19.28;82.96
75604;BME280;64187;51.010;13.792;2023-09-19T04:48:37;99634.94;;;19.21;81.09
75604;BME280;64187;51.010;13.792;2023-09-19T04:53:37;99644.81;;;19.31;81.07
75604;BME280;64187;51.010;13.792;2023-09-19T04:58:36;99643.00;;;18.86;82.08
75604;BME280;64187;51.010;13.792;2023-09-19T05:03:35;99649.97;;;18.70;82.16
75604;BME280;64187;51.010;13.792;2023-09-19T05:08:34;99651.50;;;18.17;83.90
75604;BME280;64187;51.010;13.792;2023-09-19T05:13:33;99668.03;;;17.90;86.40
75604;BME280;64187;51.010;13.792;2023-09-19T05:18:32;99673.78;;;17.88;86.19
75604;BME280;64187;51.010;13.792;2023-09-19T05:23:31;99694.50;;;17.80;86.58
75604;BME280;64187;51.010;13.792;2023-09-19T05:28:30;99690.94;;;17.52;87.31
75604;BME280;64187;51.010;13.792;2023-09-19T05:33:31;99702.59;;;17.44;88.75
75604;BME280;64187;51.010;13.792;2023-09-19T05:38:30;99703.31;;;17.50;87.63
75604;BME280;64187;51.010;13.792;2023-09-19T05:43:31;99701.75;;;17.43;89.59
75604;BME280;64187;51.010;13.792;2023-09-19T05:48:30;99706.25;;;17.67;86.75
75604;BME280;64187;51.010;13.792;2023-09-19T05:53:29;99698.84;;;17.68;85.99
75604;BME280;64187;51.010;13.792;2023-09-19T05:58:28;99710.47;;;17.73;83.19
75604;BME280;64187;51.010;13.792;2023-09-19T06:03:27;99707.75;;;17.73;83.46
75604;BME280;64187;51.010;13.792;2023-09-19T06:08:28;99708.47;;;17.93;83.37
75604;BME280;64187;51.010;13.792;2023-09-19T06:13:30;99715.38;;;18.04;81.08
75604;BME280;64187;51.010;13.792;2023-09-19T06:18:32;99720.00;;;18.03;81.12
75604;BME280;64187;51.010;13.792;2023-09-19T06:23:33;99734.19;;;18.19;80.53
75604;BME280;64187;51.010;13.792;2023-09-19T06:28:33;99747.22;;;18.14;81.31
75604;BME280;64187;51.010;13.792;2023-09-19T06:33:32;99759.03;;;18.23;79.18
75604;BME280;64187;51.010;13.792;2023-09-19T06:38:31;99763.81;;;18.31;79.02
75604;BME280;64187;51.010;13.792;2023-09-19T06:43:33;99769.19;;;18.36;80.45
75604;BME280;64187;51.010;13.792;2023-09-19T06:48:32;99769.66;;;18.38;78.80
75604;BME280;64187;51.010;13.792;2023-09-19T06:53:32;99781.38;;;18.66;77.86
75604;BME280;64187;51.010;13.792;2023-09-19T06:58:33;99782.38;;;18.84;75.96
75604;BME280;64187;51.010;13.792;2023-09-19T07:03:35;99779.31;;;19.08;74.95
75604;BME280;64187;51.010;13.792;2023-09-19T07:08:35;99793.75;;;19.23;74.59
75604;BME280;64187;51.010;13.792;2023-09-19T07:13:34;99819.31;;;19.54;72.01
75604;BME280;64187;51.010;13.792;2023-09-19T07:18:34;99810.00;;;19.64;71.10
75604;BME280;64187;51.010;13.792;2023-09-19T07:23:33;99823.06;;;19.58;71.96
75604;BME280;64187;51.010;13.792;2023-09-19T07:28:33;99831.41;;;19.53;66.93
75604;BME280;64187;51.010;13.792;2023-09-19T07:33:34;99840.63;;;19.57;67.63
75604;BME280;64187;51.010;13.792;2023-09-19T07:38:33;99846.16;;;19.35;66.31
75604;BME280;64187;51.010;13.792;2023-09-19T07:43:37;99845.41;;;19.21;67.41
75604;BME280;64187;51.010;13.792;2023-09-19T07:48:38;99846.84;;;19.18;67.09
75604;BME280;64187;51.010;13.792;2023-09-19T07:53:39;99859.75;;;19.40;65.69
75604;BME280;64187;51.010;13.792;2023-09-19T07:58:41;99869.28;;;19.65;64.49
75604;BME280;64187;51.010;13.792;2023-09-19T08:03:43;99870.00;;;19.71;61.48
75604;BME280;64187;51.010;13.792;2023-09-19T08:08:42;99862.63;;;19.80;60.76
75604;BME280;64187;51.010;13.792;2023-09-19T08:13:42;99865.03;;;19.82;61.89
75604;BME280;64187;51.010;13.792;2023-09-19T08:18:48;99870.53;;;19.82;61.39
75604;BME280;64187;51.010;13.792;2023-09-19T08:23:51;99866.28;;;20.07;60.13
75604;BME280;64187;51.010;13.792;2023-09-19T08:28:51;99863.72;;;20.10;58.94
75604;BME280;64187;51.010;13.792;2023-09-19T08:33:50;99868.66;;;19.99;58.93
75604;BME280;64187;51.010;13.792;2023-09-19T08:38:51;99873.63;;;20.20;59.00
75604;BME280;64187;51.010;13.792;2023-09-19T08:43:50;99872.84;;;20.37;58.86
75604;BME280;64187;51.010;13.792;2023-09-19T08:53:54;99898.28;;;20.42;58.22
75604;BME280;64187;51.010;13.792;2023-09-19T08:59:01;99883.34;;;20.26;59.01
75604;BME280;64187;51.010;13.792;2023-09-19T09:04:01;99893.03;;;20.23;59.71
75604;BME280;64187;51.010;13.792;2023-09-19T09:09:02;99891.41;;;20.22;59.88
75604;BME280;64187;51.010;13.792;2023-09-19T09:14:06;99891.13;;;20.33;59.80
75604;BME280;64187;51.010;13.792;2023-09-19T09:19:06;99889.13;;;20.56;57.47
75604;BME280;64187;51.010;13.792;2023-09-19T09:24:26;99877.66;;;20.71;55.79
75604;BME280;64187;51.010;13.792;2023-09-19T09:29:47;99900.97;;;20.74;54.55
75604;BME280;64187;51.010;13.792;2023-09-19T09:34:59;99900.19;;;20.82;54.85
75604;BME280;64187;51.010;13.792;2023-09-19T09:40:01;99889.97;;;20.91;54.14
75604;BME280;64187;51.010;13.792;2023-09-19T09:50:29;99902.94;;;20.42;55.31
75604;BME280;64187;51.010;13.792;2023-09-19T09:55:58;99915.06;;;20.41;55.60
75604;BME280;64187;51.010;13.792;2023-09-19T10:00:59;99918.78;;;20.36;56.63
75604;BME280;64187;51.010;13.792;2023-09-19T10:06:00;99903.84;;;20.20;56.07
75604;BME280;64187;51.010;13.792;2023-09-19T10:11:16;99908.72;;;20.32;56.00
75604;BME280;64187;51.010;13.792;2023-09-19T10:16:16;99905.50;;;20.78;55.19
75604;BME280;64187;51.010;13.792;2023-09-19T10:21:18;99905.22;;;20.97;54.70
75604;BME280;64187;51.010;13.792;2023-09-19T10:26:21;99911.22;;;20.99;54.16
75604;BME280;64187;51.010;13.792;2023-09-19T10:31:23;99917.69;;;20.95;54.16
75604;BME280;64187;51.010;13.792;2023-09-19T10:36:24;99910.91;;;21.10;54.23
75604;BME280;64187;51.010;13.792;2023-09-19T10:41:26;99901.00;;;21.08;54.98
75604;BME280;64187;51.010;13.792;2023-09-19T10:46:27;99908.13;;;21.01;52.24
75604;BME280;64187;51.010;13.792;2023-09-19T10:51:29;99907.44;;;20.86;53.04
75604;BME280;64187;51.010;13.792;2023-09-19T10:56:37;99906.84;;;21.33;51.40
75604;BME280;64187;51.010;13.792;2023-09-19T11:01:53;99911.88;;;21.57;50.45
75604;BME280;64187;51.010;13.792;2023-09-19T11:07:08;99908.91;;;21.71;50.10
75604;BME280;64187;51.010;13.792;2023-09-19T11:12:10;99906.34;;;21.66;49.41
75604;BME280;64187;51.010;13.792;2023-09-19T11:22:14;99903.41;;;22.35;46.83
75604;BME280;64187;51.010;13.792;2023-09-19T11:27:15;99903.00;;;22.07;45.54
75604;BME280;64187;51.010;13.792;2023-09-19T11:32:16;99903.59;;;21.66;46.20
75604;BME280;64187;51.010;13.792;2023-09-19T11:42:48;99904.28;;;22.10;44.31
75604;BME280;64187;51.010;13.792;2023-09-19T11:47:54;99907.03;;;22.10;44.06
75604;BME280;64187;51.010;13.792;2023-09-19T11:52:55;99896.47;;;22.29;43.74
75604;BME280;64187;51.010;13.792;2023-09-19T11:57:57;99904.88;;;22.63;42.86
75604;BME280;64187;51.010;13.792;2023-09-19T12:03:02;99896.50;;;22.80;42.39
75604;BME280;64187;51.010;13.792;2023-09-19T12:08:09;99905.16;;;22.70;42.67
75604;BME280;64187;51.010;13.792;2023-09-19T12:13:09;99892.06;;;22.58;43.03
75604;BME280;64187;51.010;13.792;2023-09-19T12:18:09;99901.44;;;22.66;43.04
75604;BME280;64187;51.010;13.792;2023-09-19T12:23:17;99897.03;;;22.73;42.93
75604;BME280;64187;51.010;13.792;2023-09-19T12:28:18;99892.03;;;22.67;43.07
75604;BME280;64187;51.010;13.792;2023-09-19T12:33:21;99894.59;;;22.51;45.55
75604;BME280;64187;51.010;13.792;2023-09-19T12:38:27;99896.69;;;22.45;46.44
75604;BME280;64187;51.010;13.792;2023-09-19T12:43:34;99884.97;;;22.19;46.84
75604;BME280;64187;51.010;13.792;2023-09-19T12:48:35;99897.56;;;22.37;47.11
75604;BME280;64187;51.010;13.792;2023-09-19T12:58:49;99895.66;;;22.29;46.57
75604;BME280;64187;51.010;13.792;2023-09-19T13:04:20;99890.06;;;22.46;46.30
75604;BME280;64187;51.010;13.792;2023-09-19T13:09:24;99886.81;;;22.74;46.10
75604;BME280;64187;51.010;13.792;2023-09-19T13:14:28;99887.75;;;22.78;46.42
75604;BME280;64187;51.010;13.792;2023-09-19T13:24:44;99881.38;;;22.86;44.89
75604;BME280;64187;51.010;13.792;2023-09-19T13:29:43;99883.16;;;23.12;43.38
75604;BME280;64187;51.010;13.792;2023-09-19T13:34:42;99886.00;;;22.73;44.09
75604;BME280;64187;51.010;13.792;2023-09-19T13:39:41;99886.63;;;23.00;43.24
75604;BME280;64187;51.010;13.792;2023-09-19T13:44:46;99888.78;;;22.94;42.26
75604;BME280;64187;51.010;13.792;2023-09-19T13:49:45;99885.81;;;22.78;43.24
75604;BME280;64187;51.010;13.792;2023-09-19T13:54:46;99892.00;;;22.96;42.34
75604;BME280;64187;51.010;13.792;2023-09-19T13:59:45;99883.72;;;22.96;42.38
75604;BME280;64187;51.010;13.792;2023-09-19T14:04:44;99879.22;;;22.92;42.55
75604;BME280;64187;51.010;13.792;2023-09-19T14:09:44;99887.41;;;22.58;41.80
75604;BME280;64187;51.010;13.792;2023-09-19T14:14:44;99878.16;;;22.54;42.80
75604;BME280;64187;51.010;13.792;2023-09-19T14:19:44;99872.47;;;22.80;41.40
75604;BME280;64187;51.010;13.792;2023-09-19T14:24:44;99876.31;;;22.88;41.84
75604;BME280;64187;51.010;13.792;2023-09-19T14:29:43;99874.59;;;23.05;42.54
75604;BME280;64187;51.010;13.792;2023-09-19T14:34:43;99873.19;;;22.98;40.66
75604;BME280;64187;51.010;13.792;2023-09-19T14:39:42;99866.66;;;23.03;41.13
75604;BME280;64187;51.010;13.792;2023-09-19T14:44:44;99871.47;;;23.27;40.83
75604;BME280;64187;51.010;13.792;2023-09-19T14:49:43;99869.97;;;22.88;40.23
75604;BME280;64187;51.010;13.792;2023-09-19T14:54:42;99848.47;;;23.02;38.81
75604;BME280;64187;51.010;13.792;2023-09-19T14:59:48;99866.59;;;22.61;39.27
75604;BME280;64187;51.010;13.792;2023-09-19T15:04:47;99860.25;;;22.61;40.07
75604;BME280;64187;51.010;13.792;2023-09-19T15:09:46;99872.44;;;22.60;39.50
75604;BME280;64187;51.010;13.792;2023-09-19T15:14:46;99864.75;;;22.44;41.06
75604;BME280;64187;51.010;13.792;2023-09-19T15:19:45;99857.84;;;22.59;40.32
75604;BME280;64187;51.010;13.792;2023-09-19T15:24:44;99868.41;;;22.57;40.22
75604;BME280;64187;51.010;13.792;2023-09-19T15:29:43;99862.31;;;22.43;40.46
75604;BME280;64187;51.010;13.792;2023-09-19T15:34:42;99856.38;;;22.32;40.48
75604;BME280;64187;51.010;13.792;2023-09-19T15:39:41;99860.09;;;22.36;40.95
75604;BME280;64187;51.010;13.792;2023-09-19T15:44:40;99854.16;;;22.17;40.19
75604;BME280;64187;51.010;13.792;2023-09-19T15:49:39;99854.66;;;22.10;40.91
75604;BME280;64187;51.010;13.792;2023-09-19T15:54:38;99858.28;;;21.93;41.29
75604;BME280;64187;51.010;13.792;2023-09-19T15:59:42;99856.41;;;21.76;41.90
75604;BME280;64187;51.010;13.792;2023-09-19T16:04:43;99852.53;;;21.68;43.35
75604;BME280;64187;51.010;13.792;2023-09-19T16:09:43;99859.03;;;21.72;42.31
75604;BME280;64187;51.010;13.792;2023-09-19T16:14:42;99849.38;;;21.49;43.05
75604;BME280;64187;51.010;13.792;2023-09-19T16:19:41;99854.03;;;21.48;41.14
75604;BME280;64187;51.010;13.792;2023-09-19T16:24:42;99863.94;;;21.23;41.48
75604;BME280;64187;51.010;13.792;2023-09-19T16:29:41;99873.97;;;21.28;41.27
75604;BME280;64187;51.010;13.792;2023-09-19T16:34:40;99872.19;;;21.06;41.29
75604;BME280;64187;51.010;13.792;2023-09-19T16:39:40;99870.41;;;20.93;41.33
75604;BME280;64187;51.010;13.792;2023-09-19T16:44:40;99878.97;;;20.74;41.21
75604;BME280;64187;51.010;13.792;2023-09-19T16:49:39;99887.81;;;20.62;42.30
75604;BME280;64187;51.010;13.792;2023-09-19T16:54:38;99888.75;;;20.49;41.28
75604;BME280;64187;51.010;13.792;2023-09-19T16:59:38;99904.38;;;20.31;42.41
75604;BME280;64187;51.010;13.792;2023-09-19T17:04:37;99898.16;;;20.16;43.92
75604;BME280;64187;51.010;13.792;2023-09-19T17:09:36;99909.56;;;20.32;42.44
75604;BME280;64187;51.010;13.792;2023-09-19T17:14:34;99907.38;;;19.81;47.33
75604;BME280;64187;51.010;13.792;2023-09-19T17:19:34;99914.91;;;19.75;44.54
75604;BME280;64187;51.010;13.792;2023-09-19T17:24:33;99916.81;;;19.52;45.17
75604;BME280;64187;51.010;13.792;2023-09-19T17:29:32;99922.16;;;19.48;45.13
75604;BME280;64187;51.010;13.792;2023-09-19T17:34:32;99933.50;;;19.33;46.16
75604;BME280;64187;51.010;13.792;2023-09-19T17:39:31;99930.78;;;19.19;47.58
75604;BME280;64187;51.010;13.792;2023-09-19T17:44:30;99935.31;;;19.01;50.71
75604;BME280;64187;51.010;13.792;2023-09-19T17:49:33;99941.41;;;18.70;50.69
75604;BME280;64187;51.010;13.792;2023-09-19T17:54:31;99942.13;;;18.35;52.79
75604;BME280;64187;51.010;13.792;2023-09-19T17:59:31;99944.25;;;18.38;51.59
75604;BME280;64187;51.010;13.792;2023-09-19T18:04:30;99949.16;;;17.94;53.88
75604;BME280;64187;51.010;13.792;2023-09-19T18:09:29;99963.66;;;17.95;54.00
75604;BME280;64187;51.010;13.792;2023-09-19T18:14:28;99965.31;;;17.39;56.14
75604;BME280;64187;51.010;13.792;2023-09-19T18:19:31;99975.84;;;17.32;56.44
75604;BME280;64187;51.010;13.792;2023-09-19T18:24:29;99986.19;;;16.97;58.59
75604;BME280;64187;51.010;13.792;2023-09-19T18:29:28;99988.97;;;17.11;56.88
75604;BME280;64187;51.010;13.792;2023-09-19T18:34:27;100006.00;;;17.83;74.72
75604;BME280;64187;51.010;13.792;2023-09-19T18:39:26;100007.13;;;18.76;63.99
75604;BME280;64187;51.010;13.792;2023-09-19T18:44:28;100004.78;;;18.83;60.31
75604;BME280;64187;51.010;13.792;2023-09-19T18:49:27;100013.41;;;17.64;57.67
75604;BME280;64187;51.010;13.792;2023-09-19T18:54:26;100022.66;;;16.87;59.20
75604;BME280;64187;51.010;13.792;2023-09-19T18:59:25;100017.91;;;16.45;61.79
75604;BME280;64187;51.010;13.792;2023-09-19T19:04:24;100016.34;;;16.04;63.70
75604;BME280;64187;51.010;13.792;2023-09-19T19:09:25;100018.25;;;16.04;63.55
75604;BME280;64187;51.010;13.792;2023-09-19T19:14:25;100020.84;;;15.90;65.27
75604;BME280;64187;51.010;13.792;2023-09-19T19:19:26;100025.81;;;15.83;65.65
75604;BME280;64187;51.010;13.792;2023-09-19T19:24:25;100029.69;;;15.71;65.78
75604;BME280;64187;51.010;13.792;2023-09-19T19:29:25;100032.47;;;15.61;66.18
75604;BME280;64187;51.010;13.792;2023-09-19T19:34:23;100033.97;;;15.38;67.53
75604;BME280;64187;51.010;13.792;2023-09-19T19:39:23;100024.38;;;15.46;67.78
75604;BME280;64187;51.010;13.792;2023-09-19T19:44:24;100030.53;;;15.17;69.20
75604;BME280;64187;51.010;13.792;2023-09-19T19:49:24;100034.88;;;15.23;69.08
75604;BME280;64187;51.010;13.792;2023-09-19T19:54:23;100043.63;;;15.10;69.70
75604;BME280;64187;51.010;13.792;2023-09-19T19:59:22;100035.50;;;15.00;70.79
75604;BME280;64187;51.010;13.792;2023-09-19T20:04:21;100046.63;;;15.14;70.67
75604;BME280;64187;51.010;13.792;2023-09-19T20:09:20;100032.25;;;14.98;72.62
75604;BME280;64187;51.010;13.792;2023-09-19T20:14:19;100036.13;;;14.86;71.96
75604;BME280;64187;51.010;13.792;2023-09-19T20:19:25;100038.03;;;14.81;71.82
75604;BME280;64187;51.010;13.792;2023-09-19T20:24:28;100042.47;;;14.56;73.24
75604;BME280;64187;51.010;13.792;2023-09-19T20:29:34;100040.56;;;14.41;75.30
75604;BME280;64187;51.010;13.792;2023-09-19T20:34:36;100038.63;;;14.57;74.46
75604;BME280;64187;51.010;13.792;2023-09-19T20:39:37;100040.56;;;14.41;75.92
75604;BME280;64187;51.010;13.792;2023-09-19T20:58:04;100033.22;;;14.21;77.83
75604;BME280;64187;51.010;13.792;2023-09-19T21:03:04;100033.47;;;14.30;77.34
75604;BME280;64187;51.010;13.792;2023-09-19T21:08:04;100032.91;;;14.33;76.87
75604;BME280;64187;51.010;13.792;2023-09-19T21:13:04;100031.31;;;14.02;78.86
75604;BME280;64187;51.010;13.792;2023-09-19T21:18:05;100030.19;;;14.28;78.47
75604;BME280;64187;51.010;13.792;2023-09-19T21:23:04;100031.59;;;13.90;80.57
75604;BME280;64187;51.010;13.792;2023-09-19T21:28:08;100033.75;;;14.03;79.54
75604;BME280;64187;51.010;13.792;2023-09-19T21:33:07;100025.88;;;14.22;78.60
75604;BME280;64187;51.010;13.792;2023-09-19T21:38:06;100022.06;;;14.13;78.28
75604;BME280;64187;51.010;13.792;2023-09-19T21:43:06;100026.06;;;14.72;75.76
75604;BME280;64187;51.010;13.792;2023-09-19T21:48:05;100031.78;;;14.70;76.50
75604;BME280;64187;51.010;13.792;2023-09-19T21:53:06;100021.75;;;14.40;76.85
75604;BME280;64187;51.010;13.792;2023-09-19T21:58:05;100013.63;;;14.14;79.02
75604;BME280;64187;51.010;13.792;2023-09-19T22:03:04;100021.50;;;14.41;78.28
75604;BME280;64187;51.010;13.792;2023-09-19T22:08:09;100004.34;;;14.26;79.13
75604;BME280;64187;51.010;13.792;2023-09-19T22:13:15;100017.16;;;14.20;78.81
75604;BME280;64187;51.010;13.792;2023-09-19T22:18:21;100008.19;;;13.99;80.10
75604;BME280;64187;51.010;13.792;2023-09-19T22:23:20;100003.81;;;13.77;81.94
75604;BME280;64187;51.010;13.792;2023-09-19T22:28:27;100003.56;;;13.84;81.09
75604;BME280;64187;51.010;13.792;2023-09-19T22:33:28;99997.84;;;13.60;82.81
75604;BME280;64187;51.010;13.792;2023-09-19T22:38:27;99999.72;;;13.39;84.69
75604;BME280;64187;51.010;13.792;2023-09-19T22:43:27;99993.22;;;13.91;81.81
75604;BME280;64187;51.010;13.792;2023-09-19T22:48:33;99998.09;;;13.64;83.54
75604;BME280;64187;51.010;13.792;2023-09-19T22:53:33;99996.47;;;13.52;83.83
75604;BME280;64187;51.010;13.792;2023-09-19T22:58:34;100000.56;;;13.60;83.52
75604;BME280;64187;51.010;13.792;2023-09-19T23:03:35;100001.91;;;13.63;83.19
75604;BME280;64187;51.010;13.792;2023-09-19T23:08:36;100004.94;;;13.76;82.82
75604;BME280;64187;51.010;13.792;2023-09-19T23:13:36;100008.16;;;13.58;82.88
75604;BME280;64187;51.010;13.792;2023-09-19T23:18:37;100007.59;;;13.41;84.37
75604;BME280;64187;51.010;13.792;2023-09-19T23:23:38;100004.06;;;13.40;84.00
75604;BME280;64187;51.010;13.792;2023-09-19T23:28:40;100007.88;;;13.49;83.21
75604;BME280;64187;51.010;13.792;2023-09-19T23:33:42;100007.91;;;13.60;82.59
75604;BME280;64187;51.010;13.792;2023-09-19T23:38:40;100013.84;;;13.41;83.68
75604;BME280;64187;51.010;13.792;2023-09-19T23:43:40;100012.41;;;13.23;85.15
75604;BME280;64187;51.010;13.792;2023-09-19T23:48:39;100016.47;;;13.21;85.67
75604;BME280;64187;51.010;13.792;2023-09-19T23:53:39;100018.78;;;13.75;82.33
75604;BME280;64187;51.010;13.792;2023-09-19T23:58:38;100017.97;;;13.85;81.29
